Time;durP1;ratioP1;P1;durP2;ratioP2;P2;SDS_P1;SDS_P2;PMS_P1;PMS_P2;Temp;Humidity;BMP_temperature;BMP_pressure;BME280_temperature;BME280_humidity;BME280_pressure;Samples;Min_cycle;Max_cycle;Signal;HPM_P1;HPM_P2
2021/05/23 00:08:31;;;;;;;2.28;1.55;;;13.30;90.00;;;;;;5016800;28;20044;-85
2021/05/23 00:14:21;;;;;;;3.70;1.80;;;13.30;90.00;;;;;;5016557;28;20021;-86
2021/05/23 00:20:10;;;;;;;3.78;1.67;;;13.30;90.00;;;;;;5016708;28;20390;-86
2021/05/23 00:25:59;;;;;;;3.30;1.42;;;13.30;90.00;;;;;;5016697;28;20073;-86
2021/05/23 00:31:47;;;;;;;3.47;1.80;;;13.30;90.00;;;;;;5017159;28;20691;-85
2021/05/23 00:37:36;;;;;;;3.80;1.55;;;13.30;90.10;;;;;;5016934;28;20091;-86
2021/05/23 00:43:27;;;;;;;5.57;1.52;;;13.30;90.10;;;;;;5016629;28;20036;-86
2021/05/23 00:49:15;;;;;;;5.30;1.70;;;13.30;90.10;;;;;;5016602;28;20084;-85
2021/05/23 00:55:19;;;;;;;3.67;1.73;;;13.30;90.10;;;;;;5016059;28;20447;-86
2021/05/23 01:14:58;;;;;;;3.85;1.70;;;13.10;90.20;;;;;;5015351;28;20052;-87
2021/05/23 01:21:11;;;;;;;4.57;1.63;;;13.20;90.30;;;;;;5015537;28;20706;-87
2021/05/23 01:27:07;;;;;;;4.50;1.70;;;13.20;90.30;;;;;;5015383;28;20041;-86
2021/05/23 01:33:05;;;;;;;3.28;1.60;;;13.10;90.20;;;;;;5015280;28;20028;-85
2021/05/23 01:38:56;;;;;;;4.68;1.60;;;13.10;90.40;;;;;;5015402;28;20125;-87
2021/05/23 01:44:47;;;;;;;3.60;1.50;;;13.10;90.40;;;;;;5015101;28;20041;-87
2021/05/23 01:50:37;;;;;;;3.83;1.60;;;13.00;90.30;;;;;;5015247;28;20041;-87
2021/05/23 01:56:26;;;;;;;6.20;1.63;;;13.00;90.40;;;;;;5014931;28;20092;-87
2021/05/23 02:02:17;;;;;;;3.97;1.40;;;13.00;90.50;;;;;;5014838;28;20053;-88
2021/05/23 02:08:09;;;;;;;4.75;1.52;;;13.00;90.50;;;;;;5014761;28;20398;-88
2021/05/23 02:14:39;;;;;;;2.25;1.50;;;13.00;90.40;;;;;;5014499;28;20036;-88
2021/05/23 02:20:38;;;;;;;3.92;1.60;;;12.90;90.40;;;;;;4950263;28;20048;-88
2021/05/23 02:26:26;;;;;;;5.95;1.90;;;12.90;90.50;;;;;;5014108;28;20125;-87
2021/05/23 02:39:07;;;;;;;1.92;1.45;;;12.70;90.40;;;;;;4991195;28;20045;-85
2021/05/23 02:44:57;;;;;;;3.95;1.80;;;12.70;90.50;;;;;;5013945;28;20048;-85
2021/05/23 02:50:49;;;;;;;4.07;1.80;;;12.60;90.60;;;;;;5014065;28;20103;-85
2021/05/23 02:56:38;;;;;;;3.33;1.70;;;12.50;90.50;;;;;;5013986;28;20617;-85
2021/05/23 03:02:27;;;;;;;4.88;1.90;;;12.50;90.60;;;;;;5013648;28;20493;-85
2021/05/23 03:08:17;;;;;;;4.05;1.90;;;12.40;90.70;;;;;;5013508;28;20524;-85
2021/05/23 03:14:06;;;;;;;5.35;1.73;;;12.30;90.50;;;;;;4994191;28;20538;-85
2021/05/23 03:26:09;;;;;;;4.68;1.83;;;12.10;90.50;;;;;;4994071;28;20042;-88
2021/05/23 03:32:06;;;;;;;4.68;1.70;;;11.90;90.50;;;;;;4993872;28;20052;-86
2021/05/23 03:37:55;;;;;;;3.67;1.50;;;11.90;90.70;;;;;;4993960;28;20033;-86
2021/05/23 03:43:44;;;;;;;5.25;1.80;;;11.80;90.50;;;;;;4993770;28;20033;-86
2021/05/23 03:49:37;;;;;;;3.47;1.90;;;11.80;90.80;;;;;;4993827;28;20038;-85
2021/05/23 03:55:28;;;;;;;4.85;1.77;;;11.80;90.80;;;;;;4993894;28;20107;-86
2021/05/23 04:01:17;;;;;;;5.60;1.80;;;11.70;90.80;;;;;;4993903;28;20104;-85
2021/05/23 04:11:14;;;;;;;4.57;1.77;;;11.60;90.80;;;;;;4993848;28;20049;-86
2021/05/23 04:17:03;;;;;;;3.55;2.15;;;11.50;90.80;;;;;;4993630;28;20045;-85
2021/05/23 04:22:54;;;;;;;2.33;1.60;;;11.60;90.90;;;;;;4997028;28;20533;-86
2021/05/23 04:28:50;;;;;;;3.83;1.90;;;11.50;90.80;;;;;;4996999;28;20026;-86
2021/05/23 04:34:39;;;;;;;3.53;1.75;;;11.50;91.00;;;;;;4996927;28;20382;-85
2021/05/23 04:40:28;;;;;;;3.47;2.08;;;11.50;91.10;;;;;;4996802;28;20069;-85
2021/05/23 04:46:17;;;;;;;3.40;2.00;;;11.60;91.30;;;;;;4996875;28;20126;-85
2021/05/23 04:52:07;;;;;;;5.40;2.15;;;11.60;91.20;;;;;;4998121;28;20041;-85
2021/05/23 04:57:56;;;;;;;4.57;1.85;;;11.60;91.20;;;;;;4997078;28;20117;-86
2021/05/23 05:03:49;;;;;;;4.38;1.80;;;11.70;91.20;;;;;;4996525;28;20034;-86
2021/05/23 05:13:38;;;;;;;5.43;2.15;;;11.70;91.30;;;;;;4996068;28;20072;-85
2021/05/23 05:19:30;;;;;;;4.82;1.95;;;11.70;91.30;;;;;;4996148;28;20033;-86
2021/05/23 05:25:24;;;;;;;9.20;3.88;;;11.80;91.40;;;;;;4995889;28;20045;-87
2021/05/23 05:31:12;;;;;;;4.63;1.90;;;11.80;91.40;;;;;;4995593;28;20041;-87
2021/05/23 05:37:06;;;;;;;4.35;1.80;;;11.80;91.30;;;;;;4995386;28;20092;-87
2021/05/23 05:42:55;;;;;;;3.35;1.80;;;11.80;91.30;;;;;;4995638;28;20113;-87
2021/05/23 05:48:49;;;;;;;5.00;2.00;;;11.70;91.30;;;;;;4995408;28;20089;-88
2021/05/23 06:01:32;;;;;;;3.15;1.90;;;11.90;91.60;;;;;;4995208;28;20490;-87
2021/05/23 06:07:24;;;;;;;4.10;1.80;;;12.10;91.60;;;;;;4994976;28;20540;-88
2021/05/23 06:13:16;;;;;;;4.65;1.75;;;12.10;91.60;;;;;;4995046;28;20120;-88
2021/05/23 06:19:08;;;;;;;8.85;2.85;;;12.20;91.30;;;;;;4994900;28;20045;-87
2021/05/23 06:25:00;;;;;;;4.15;1.80;;;12.20;91.50;;;;;;4994680;28;20046;-88
2021/05/23 06:30:49;;;;;;;2.95;1.85;;;12.40;91.70;;;;;;4996771;28;20037;-81
2021/05/23 06:36:50;;;;;;;3.80;1.90;;;12.80;91.90;;;;;;4994590;28;20089;-85
2021/05/23 06:42:39;;;;;;;5.03;1.80;;;12.90;91.80;;;;;;4993870;28;20042;-89
2021/05/23 06:48:38;;;;;;;4.43;2.22;;;13.10;91.90;;;;;;4994354;28;20049;-88
2021/05/23 06:54:27;;;;;;;3.45;1.63;;;13.40;91.50;;;;;;4994185;28;20084;-84
2021/05/23 07:00:16;;;;;;;3.20;1.80;;;13.60;92.00;;;;;;4994112;28;20046;-86
2021/05/23 07:06:08;;;;;;;6.15;2.00;;;13.70;91.70;;;;;;4993850;28;20048;-88
2021/05/23 07:15:57;;;;;;;5.15;2.05;;;14.10;92.00;;;;;;4994232;28;20054;-84
2021/05/23 07:21:46;;;;;;;2.17;1.65;;;14.50;92.30;;;;;;4994135;28;20038;-84
2021/05/23 07:27:35;;;;;;;2.22;1.70;;;14.60;91.40;;;;;;4994126;28;20534;-85
2021/05/23 07:33:24;;;;;;;7.50;2.55;;;14.80;92.10;;;;;;4994051;28;20025;-84
2021/05/23 07:39:13;;;;;;;3.28;1.70;;;14.70;91.30;;;;;;4993860;28;20057;-85
2021/05/23 07:45:02;;;;;;;1.88;1.10;;;15.00;91.80;;;;;;4993889;28;20056;-85
2021/05/23 07:50:50;;;;;;;3.88;1.65;;;15.40;92.00;;;;;;4994895;28;20030;-84
2021/05/23 07:56:38;;;;;;;3.08;1.63;;;15.40;91.30;;;;;;4997301;28;20037;-85
2021/05/23 08:02:28;;;;;;;2.88;1.30;;;15.50;91.50;;;;;;4997579;28;20041;-85
2021/05/23 08:08:16;;;;;;;6.32;1.30;;;15.40;90.60;;;;;;4997169;28;20088;-85
2021/05/23 08:17:59;;;;;;;1.30;1.02;;;15.30;91.30;;;;;;4997398;28;20157;-84
2021/05/23 08:23:49;;;;;;;1.42;1.20;;;15.70;91.90;;;;;;4998109;28;20109;-84
2021/05/23 08:29:40;;;;;;;2.10;1.33;;;16.30;92.10;;;;;;4998600;28;20049;-84
2021/05/23 08:35:32;;;;;;;1.88;1.05;;;16.70;91.00;;;;;;4997703;28;20022;-84
2021/05/23 08:41:24;;;;;;;2.80;1.55;;;16.50;91.00;;;;;;4998076;28;20072;-84
2021/05/23 08:47:13;;;;;;;5.85;1.50;;;16.50;91.30;;;;;;4997784;28;20441;-84
2021/05/23 08:53:05;;;;;;;6.13;1.65;;;16.60;90.60;;;;;;4996831;28;20579;-85
2021/05/23 08:58:53;;;;;;;1.08;0.93;;;16.50;91.10;;;;;;4996721;28;20427;-84
2021/05/23 09:04:50;;;;;;;3.42;1.42;;;16.90;90.90;;;;;;4996968;28;20549;-83
2021/05/23 09:10:38;;;;;;;1.88;1.20;;;16.60;88.60;;;;;;4996582;28;20057;-84
2021/05/23 09:20:28;;;;;;;2.83;1.10;;;15.90;87.60;;;;;;4996205;28;20045;-84
2021/05/23 09:26:22;;;;;;;3.83;1.75;;;15.80;90.40;;;;;;4995898;28;20057;-85
2021/05/23 09:32:18;;;;;;;2.70;1.30;;;15.90;90.00;;;;;;4995645;28;20030;-84
2021/05/23 09:38:07;;;;;;;13.00;5.25;;;15.90;90.00;;;;;;4995548;28;20109;-83
2021/05/23 09:44:28;;;;;;;2.67;1.35;;;15.70;88.50;;;;;;4996322;28;20096;-83
2021/05/23 09:50:18;;;;;;;5.47;1.40;;;15.90;91.10;;;;;;4998491;28;20037;-85
2021/05/23 09:56:12;;;;;;;2.70;1.45;;;17.00;91.70;;;;;;4999529;28;20044;-83
2021/05/23 10:02:11;;;;;;;2.22;1.33;;;17.10;89.70;;;;;;4999077;28;20125;-84
2021/05/23 10:08:16;;;;;;;2.67;1.20;;;16.80;89.20;;;;;;4999035;28;20021;-84
2021/05/23 10:17:26;;;;;;;3.30;1.40;;;16.80;91.30;;;;;;4993239;28;20053;-83
2021/05/23 10:23:26;;;;;;;3.78;1.70;;;16.90;89.40;;;;;;4998042;28;20386;-83
2021/05/23 10:29:17;;;;;;;5.82;1.70;;;17.10;91.20;;;;;;4998460;28;20037;-84
2021/05/23 10:35:19;;;;;;;3.25;2.08;;;17.30;90.60;;;;;;4998948;28;20041;-83
2021/05/23 10:41:07;;;;;;;5.63;1.60;;;17.40;90.10;;;;;;4997516;28;20042;-85
2021/05/23 10:47:09;;;;;;;2.13;1.45;;;17.30;89.70;;;;;;4997668;28;20056;-84
2021/05/23 10:52:58;;;;;;;3.85;1.63;;;17.40;90.00;;;;;;4996908;28;20037;-84
2021/05/23 10:59:14;;;;;;;8.00;1.75;;;17.90;90.10;;;;;;4997107;28;20037;-84
2021/05/23 11:05:08;;;;;;;3.70;1.50;;;17.70;87.40;;;;;;4997389;28;20039;-84
2021/05/23 11:10:57;;;;;;;3.05;1.52;;;17.60;88.70;;;;;;4999258;28;20096;-85
2021/05/23 11:16:49;;;;;;;1.15;0.90;;;18.20;90.40;;;;;;4998728;28;20040;-84
2021/05/23 11:22:38;;;;;;;1.50;1.20;;;20.00;92.60;;;;;;4994171;28;20057;-84
2021/05/23 11:28:27;;;;;;;1.75;1.15;;;21.60;91.20;;;;;;4994333;28;20553;-85
2021/05/23 11:34:20;;;;;;;2.70;1.27;;;23.40;92.10;;;;;;4997867;28;20141;-84
2021/05/23 11:40:10;;;;;;;2.92;1.13;;;22.40;81.30;;;;;;4997650;28;20041;-84
2021/05/23 11:46:02;;;;;;;0.93;0.88;;;20.50;80.50;;;;;;4997586;28;20037;-85
2021/05/23 11:52:05;;;;;;;2.72;1.35;;;20.50;88.50;;;;;;4997429;28;20033;-85
2021/05/23 11:58:08;;;;;;;1.05;0.95;;;22.70;93.10;;;;;;4997333;28;20034;-85
2021/05/23 12:04:08;;;;;;;0.85;0.85;;;24.20;88.00;;;;;;4997449;28;20056;-86
2021/05/23 12:10:00;;;;;;;1.75;0.98;;;23.40;87.70;;;;;;4997110;28;20104;-85
2021/05/23 12:15:57;;;;;;;4.88;1.55;;;24.90;90.30;;;;;;4996994;28;20034;-86
2021/05/23 12:25:33;;;;;;;3.28;1.40;;;27.00;90.30;;;;;;4996820;28;20127;-86
2021/05/23 12:31:23;;;;;;;4.03;1.33;;;27.90;87.60;;;;;;4996694;28;20034;-85
2021/05/23 12:37:12;;;;;;;2.45;1.05;;;26.20;76.80;;;;;;4996865;28;20041;-85
2021/05/23 12:43:20;;;;;;;1.95;1.00;;;23.70;77.00;;;;;;4996477;28;20045;-85
2021/05/23 12:49:19;;;;;;;0.82;0.82;;;22.80;82.10;;;;;;4996447;28;20064;-85
2021/05/23 12:55:16;;;;;;;4.22;1.80;;;23.20;84.00;;;;;;4996547;28;20041;-85
2021/05/23 13:01:06;;;;;;;1.48;1.38;;;24.70;91.70;;;;;;4996169;28;20049;-85
2021/05/23 13:06:59;;;;;;;0.77;0.77;;;26.90;85.50;;;;;;4995970;28;20068;-85
2021/05/23 13:13:00;;;;;;;1.15;0.63;;;25.40;77.10;;;;;;4995830;28;20042;-85
2021/05/23 13:18:48;;;;;;;1.70;1.33;;;22.90;75.20;;;;;;4996080;28;20446;-85
2021/05/23 13:28:37;;;;;;;0.95;0.90;;;22.60;80.20;;;;;;4995909;28;20053;-85
2021/05/23 13:34:26;;;;;;;1.05;1.05;;;22.10;79.20;;;;;;4995800;28;20077;-85
2021/05/23 13:40:15;;;;;;;4.57;1.10;;;21.30;78.30;;;;;;4995618;28;20053;-85
2021/05/23 13:46:03;;;;;;;1.38;1.30;;;21.40;81.50;;;;;;4995244;28;20080;-85
2021/05/23 13:51:51;;;;;;;2.60;1.08;;;25.10;95.00;;;;;;4994989;28;20442;-85
2021/05/23 13:58:06;;;;;;;0.70;0.50;;;26.50;75.70;;;;;;4995539;28;20150;-85
2021/05/23 14:03:55;;;;;;;1.50;1.40;;;23.60;74.50;;;;;;4995310;28;20108;-86
2021/05/23 14:09:43;;;;;;;1.73;1.08;;;25.30;89.00;;;;;;4995085;28;20085;-84
2021/05/23 14:15:33;;;;;;;1.88;1.50;;;27.80;89.30;;;;;;4995162;28;20037;-84
2021/05/23 14:21:28;;;;;;;1.50;0.93;;;30.00;74.40;;;;;;4994735;28;20077;-87
2021/05/23 14:31:20;;;;;;;1.27;1.10;;;24.90;74.90;;;;;;4994921;28;20042;-85
2021/05/23 14:37:08;;;;;;;1.88;0.95;;;26.40;82.00;;;;;;4994777;28;20548;-85
2021/05/23 14:42:57;;;;;;;1.38;0.95;;;25.60;77.10;;;;;;4994602;28;20038;-85
2021/05/23 14:48:46;;;;;;;2.58;1.08;;;24.30;78.30;;;;;;4994626;28;20041;-85
2021/05/23 14:54:35;;;;;;;1.58;0.80;;;23.60;77.50;;;;;;4994273;28;20037;-85
2021/05/23 15:00:23;;;;;;;1.65;1.10;;;22.50;78.00;;;;;;4994210;28;20034;-85
2021/05/23 15:06:13;;;;;;;1.92;0.98;;;22.20;80.90;;;;;;4994030;28;20590;-84
2021/05/23 15:12:03;;;;;;;1.67;1.15;;;24.10;93.40;;;;;;4994130;28;20068;-85
2021/05/23 15:17:51;;;;;;;2.70;1.35;;;28.80;94.30;;;;;;4994262;28;20441;-84
2021/05/23 15:23:39;;;;;;;1.77;1.30;;;33.30;91.80;;;;;;4994160;28;20029;-85
2021/05/23 15:33:28;;;;;;;1.75;1.25;;;35.60;84.80;;;;;;4993952;28;20518;-85
2021/05/23 15:39:16;;;;;;;1.88;1.17;;;38.10;80.60;;;;;;4993946;28;20029;-85
2021/05/23 15:45:07;;;;;;;1.38;0.98;;;39.00;76.00;;;;;;4993946;28;20089;-85
2021/05/23 15:50:56;;;;;;;2.33;1.20;;;40.20;72.30;;;;;;4993963;28;20089;-85
2021/05/23 15:56:44;;;;;;;1.52;1.02;;;38.80;67.70;;;;;;4993708;28;20033;-85
2021/05/23 16:02:34;;;;;;;2.65;1.40;;;36.90;64.20;;;;;;4993916;28;20417;-84
2021/05/23 16:08:24;;;;;;;2.38;0.95;;;36.90;68.80;;;;;;4993806;28;20041;-85
2021/05/23 16:14:12;;;;;;;2.65;1.15;;;36.00;66.90;;;;;;4993764;28;20057;-85
2021/05/23 16:25:13;;;;;;;2.70;1.00;;;35.00;64.80;;;;;;6058286;23;20743;-85
2021/05/23 16:31:03;;;;;;;1.30;0.82;;;33.30;60.10;;;;;;4996813;28;20026;-86
2021/05/23 16:43:51;;;;;;;1.63;0.80;;;26.20;63.90;;;;;;4913939;29;20061;-88
2021/05/23 16:49:40;;;;;;;1.45;0.98;;;27.60;75.00;;;;;;4998169;28;20057;-85
2021/05/23 16:55:33;;;;;;;2.05;1.00;;;27.60;65.20;;;;;;4997075;28;20101;-86
2021/05/23 17:01:22;;;;;;;2.08;1.25;;;29.40;71.90;;;;;;4996572;28;20498;-87
2021/05/23 17:07:11;;;;;;;1.30;1.00;;;28.90;65.60;;;;;;4996096;28;20518;-87
2021/05/23 17:12:59;;;;;;;1.20;1.10;;;28.70;67.10;;;;;;4996076;28;20041;-87
2021/05/23 17:18:48;;;;;;;0.93;0.90;;;28.00;65.20;;;;;;4996165;28;20053;-86
2021/05/23 17:24:38;;;;;;;2.17;1.10;;;27.30;67.20;;;;;;4996314;28;20068;-87
2021/05/23 17:30:27;;;;;;;0.85;0.65;;;26.70;67.20;;;;;;4996029;28;20101;-86
2021/05/23 17:36:16;;;;;;;1.95;0.95;;;26.30;66.70;;;;;;4995929;28;20089;-86
2021/05/23 17:42:04;;;;;;;3.78;1.20;;;25.40;66.50;;;;;;4995653;28;20113;-86
2021/05/23 17:47:53;;;;;;;1.25;0.90;;;24.30;65.60;;;;;;4995769;28;20153;-87
2021/05/23 17:53:42;;;;;;;1.55;0.85;;;23.00;67.00;;;;;;4995288;28;20032;-86
2021/05/23 17:59:31;;;;;;;2.50;1.30;;;22.00;67.60;;;;;;4995243;28;20029;-87
2021/05/23 18:05:20;;;;;;;3.70;1.25;;;21.20;68.30;;;;;;4995035;28;20088;-86
2021/05/23 18:11:09;;;;;;;3.40;1.02;;;20.60;69.40;;;;;;4995266;28;20065;-86
2021/05/23 18:16:57;;;;;;;0.63;0.63;;;20.10;69.80;;;;;;4994863;28;20033;-86
2021/05/23 18:22:46;;;;;;;3.08;1.10;;;19.70;70.20;;;;;;4995001;28;20117;-86
2021/05/23 18:32:37;;;;;;;5.82;2.10;;;19.20;71.20;;;;;;4994902;28;20464;-87
2021/05/23 18:38:27;;;;;;;2.67;1.60;;;18.80;71.20;;;;;;4994482;28;20041;-87
2021/05/23 18:44:15;;;;;;;5.10;2.33;;;18.50;71.60;;;;;;4994686;28;20390;-86
2021/05/23 18:50:04;;;;;;;4.68;2.00;;;18.20;71.80;;;;;;4994819;28;20033;-86
2021/05/23 18:55:55;;;;;;;2.90;1.67;;;17.90;72.30;;;;;;4994455;28;20037;-85
2021/05/23 19:01:44;;;;;;;2.50;1.17;;;17.70;72.60;;;;;;4994554;28;20389;-88
2021/05/23 19:07:36;;;;;;;5.15;1.40;;;17.50;73.10;;;;;;4994483;28;20057;-90
2021/05/23 19:13:25;;;;;;;1.67;1.10;;;17.10;72.40;;;;;;4994563;28;20029;-90
2021/05/23 19:19:13;;;;;;;5.50;1.88;;;16.80;72.70;;;;;;4994456;28;20045;-90
2021/05/23 19:25:03;;;;;;;5.57;1.90;;;16.30;72.80;;;;;;4994434;28;20081;-90
2021/05/23 19:34:55;;;;;;;2.50;1.58;;;15.70;73.10;;;;;;4994346;28;20450;-89
2021/05/23 19:40:44;;;;;;;3.10;1.88;;;15.30;73.50;;;;;;4994183;28;20033;-90
2021/05/23 19:46:34;;;;;;;1.92;1.63;;;15.00;73.60;;;;;;4993892;28;20068;-89
2021/05/23 19:52:25;;;;;;;2.92;1.67;;;14.60;74.10;;;;;;4997988;28;20526;-90
2021/05/23 19:58:13;;;;;;;4.47;2.08;;;14.40;74.30;;;;;;4997911;28;20029;-90
2021/05/23 20:04:02;;;;;;;3.70;1.90;;;14.10;74.50;;;;;;4997838;28;20078;-92
2021/05/23 20:09:51;;;;;;;3.70;2.10;;;13.80;74.40;;;;;;4997788;28;20033;-91
2021/05/23 20:15:40;;;;;;;7.25;2.20;;;13.60;75.00;;;;;;4997596;28;20042;-91
2021/05/23 20:21:33;;;;;;;4.90;2.35;;;13.30;74.90;;;;;;4997110;28;20092;-89
2021/05/23 21:36:03;;;;;;;10.00;4.03;;;10.90;77.00;;;;;;4865913;29;20138;-87
2021/05/23 21:49:23;;;;;;;9.38;3.72;;;10.50;77.20;;;;;;4920915;29;20147;-87
2021/05/23 21:55:58;;;;;;;8.20;3.80;;;10.40;77.50;;;;;;4935635;29;20531;-88
2021/05/23 22:08:16;;;;;;;7.55;3.70;;;10.00;77.80;;;;;;4935516;29;20051;-87
2021/05/23 22:14:21;;;;;;;8.73;3.78;;;9.90;77.90;;;;;;4935199;29;20058;-88
2021/05/23 22:24:13;;;;;;;8.88;3.97;;;9.70;78.10;;;;;;4995615;28;20041;-88
2021/05/23 22:58:05;;;;;;;8.20;3.50;;;9.00;78.80;;;;;;4859143;29;20036;-88
2021/05/23 23:08:02;;;;;;;6.63;3.22;;;8.80;78.70;;;;;;4994027;28;20041;-87
2021/05/23 23:14:01;;;;;;;8.25;3.50;;;8.70;78.80;;;;;;4994294;28;20486;-87
2021/05/23 23:23:29;;;;;;;8.65;3.38;;;8.50;79.10;;;;;;4994234;28;20069;-87
2021/05/23 23:29:22;;;;;;;6.88;3.38;;;8.50;79.20;;;;;;4998312;28;20537;-88
2021/05/23 23:35:19;;;;;;;9.50;3.40;;;8.40;79.30;;;;;;4997895;28;20033;-87
2021/05/23 23:41:14;;;;;;;7.70;3.03;;;8.30;79.30;;;;;;4998093;28;20025;-88
2021/05/23 23:47:05;;;;;;;7.82;3.35;;;8.20;79.40;;;;;;4998008;28;20057;-87
